createdAt,value
2023-01-21T00:01:09.291Z,98.42
2023-01-21T00:03:36.306Z,97.03
2023-01-21T00:06:05.225Z,97.85
2023-01-21T00:08:32.557Z,98.59
2023-01-21T00:11:11.493Z,97.99
2023-01-21T00:13:38.521Z,97.89
2023-01-21T00:16:06.138Z,98.11
2023-01-21T00:18:34.191Z,96.35
2023-01-21T00:21:01.805Z,94.55
2023-01-21T00:23:28.741Z,94.13
2023-01-21T00:26:03.245Z,93.30
2023-01-21T00:28:31.875Z,93.10
2023-01-21T00:31:00.314Z,93.19
2023-01-21T00:33:28.303Z,94.95
2023-01-21T00:36:12.478Z,93.58
2023-01-21T00:38:40.249Z,93.89
2023-01-21T00:41:12.796Z,95.15
2023-01-21T00:43:42.765Z,93.00
2023-01-21T00:46:10.961Z,93.31
2023-01-21T00:48:38.391Z,94.92
2023-01-21T00:51:05.528Z,93.41
2023-01-21T00:53:35.272Z,93.71
2023-01-21T00:56:04.410Z,92.94
2023-01-21T00:58:31.863Z,91.65
2023-01-21T01:01:05.401Z,92.58
2023-01-21T01:03:32.889Z,93.30
2023-01-21T01:06:05.831Z,94.10
2023-01-21T01:08:33.239Z,94.13
2023-01-21T01:11:00.646Z,94.45
2023-01-21T01:13:27.953Z,95.18
2023-01-21T01:15:57.565Z,94.25
2023-01-21T01:18:25.913Z,94.73
2023-01-21T01:20:52.941Z,93.93
2023-01-21T01:23:19.802Z,95.25
2023-01-21T01:26:08.067Z,94.75
2023-01-21T01:28:35.444Z,95.99
2023-01-21T01:31:08.838Z,96.11
2023-01-21T01:33:35.840Z,96.53
2023-01-21T01:36:08.887Z,97.67
2023-01-21T01:38:35.839Z,97.48
2023-01-21T01:41:03.470Z,97.05
2023-01-21T01:43:59.863Z,97.75
2023-01-21T01:46:32.618Z,96.53
2023-01-21T01:49:02.240Z,96.41
2023-01-21T01:51:57.595Z,96.15
2023-01-21T01:54:29.861Z,98.32
2023-01-21T01:56:59.412Z,99.42
2023-01-21T01:59:27.917Z,99.31
2023-01-21T02:01:57.343Z,97.57
2023-01-21T02:04:29.874Z,96.36
2023-01-21T02:06:57.891Z,96.83
2023-01-21T02:09:29.864Z,98.45
2023-01-21T02:12:02.768Z,98.58
2023-01-21T02:14:31.945Z,98.75
2023-01-21T02:17:04.515Z,97.28
2023-01-21T02:20:08.625Z,94.38
2023-01-21T02:23:04.763Z,94.62
2023-01-21T02:25:34.627Z,94.54
2023-01-21T02:28:21.420Z,95.77
2023-01-21T02:31:03.289Z,95.39
2023-01-21T02:34:01.318Z,96.80
2023-01-21T02:36:57.664Z,96.47
2023-01-21T02:39:24.366Z,95.92
2023-01-21T02:41:56.896Z,96.41
2023-01-21T02:44:32.611Z,95.62
2023-01-21T02:47:19.779Z,95.34
2023-01-21T02:49:52.765Z,94.73
2023-01-21T02:52:23.101Z,95.37
2023-01-21T02:54:53.062Z,94.87
2023-01-21T02:57:36.779Z,93.99
2023-01-21T03:00:10.013Z,93.68
2023-01-21T03:03:03.666Z,93.90
2023-01-21T03:05:48.830Z,93.49
2023-01-21T03:08:27.389Z,95.42
2023-01-21T03:11:04.058Z,95.34
2023-01-21T03:13:59.567Z,93.19
2023-01-21T03:16:52.107Z,95.45
2023-01-21T03:19:20.990Z,94.48
2023-01-21T03:21:49.296Z,92.99
2023-01-21T03:24:16.587Z,90.94
2023-01-21T03:26:48.553Z,89.78
2023-01-21T03:29:21.347Z,91.83
2023-01-21T03:31:53.939Z,92.90
2023-01-21T03:34:24.413Z,92.11
2023-01-21T03:36:57.746Z,90.88
2023-01-21T03:39:51.999Z,89.30
2023-01-21T03:42:19.364Z,89.01
2023-01-21T03:44:46.805Z,89.28
2023-01-21T03:47:23.531Z,89.55
2023-01-21T03:49:59.748Z,92.53
2023-01-21T03:52:27.916Z,93.49
2023-01-21T03:54:55.225Z,91.86
2023-01-21T03:57:22.385Z,91.80
2023-01-21T03:59:49.307Z,91.89
2023-01-21T04:02:20.539Z,91.46
2023-01-21T04:04:48.340Z,92.02
2023-01-21T04:07:16.387Z,92.60
2023-01-21T04:09:43.843Z,92.56
2023-01-21T04:12:11.034Z,92.66
2023-01-21T04:14:38.582Z,93.23
2023-01-21T04:17:05.656Z,93.12
2023-01-21T04:19:32.619Z,94.50
2023-01-21T04:21:59.846Z,95.01
2023-01-21T04:24:27.132Z,94.70
2023-01-21T04:26:54.409Z,95.02
2023-01-21T04:29:21.550Z,95.57
2023-01-21T04:31:48.653Z,94.91
2023-01-21T04:34:16.813Z,94.04
2023-01-21T04:36:44.244Z,93.59
2023-01-21T04:39:11.739Z,92.69
2023-01-21T04:41:38.749Z,93.44
2023-01-21T04:44:05.802Z,93.95
2023-01-21T04:46:32.903Z,92.65
2023-01-21T04:48:59.843Z,91.60
2023-01-21T04:51:26.691Z,92.46
2023-01-21T04:53:53.559Z,92.15
2023-01-21T04:56:20.377Z,90.12
2023-01-21T04:58:47.300Z,89.53
2023-01-21T05:01:14.251Z,89.14
2023-01-21T05:03:41.156Z,90.46
2023-01-21T05:06:08.110Z,89.73
2023-01-21T05:08:34.975Z,88.38
2023-01-21T05:11:01.895Z,88.56
2023-01-21T05:13:28.878Z,88.81
2023-01-21T05:15:56.361Z,88.11
2023-01-21T05:18:23.582Z,89.13
2023-01-21T05:20:50.467Z,89.58
2023-01-21T05:23:17.325Z,89.48
2023-01-21T05:25:44.182Z,93.59
2023-01-21T05:28:11.128Z,95.80
2023-01-21T05:30:40.420Z,94.09
2023-01-21T05:33:08.081Z,92.26
2023-01-21T05:35:35.786Z,89.64
2023-01-21T05:38:02.681Z,88.37
2023-01-21T05:40:29.607Z,88.76
2023-01-21T05:42:56.539Z,88.56
2023-01-21T05:45:23.660Z,86.70
2023-01-21T05:47:50.594Z,84.73
2023-01-21T05:50:17.767Z,83.52
2023-01-21T05:52:44.718Z,78.50
2023-01-21T05:55:11.552Z,73.12
2023-01-21T05:57:38.392Z,65.53
2023-01-21T06:00:05.886Z,64.96
2023-01-21T06:02:32.911Z,65.33
2023-01-21T06:04:59.805Z,63.52
2023-01-21T06:07:26.748Z,57.42
2023-01-21T06:09:53.841Z,54.78
2023-01-21T06:12:20.733Z,65.56
2023-01-21T06:14:47.558Z,71.74
2023-01-21T06:17:14.455Z,72.35
2023-01-21T06:19:41.348Z,73.24
2023-01-21T06:22:14.584Z,72.73
2023-01-21T06:24:41.614Z,71.72
2023-01-21T06:27:08.508Z,70.42
2023-01-21T06:29:35.353Z,66.52
2023-01-21T06:32:02.267Z,62.33
2023-01-21T06:34:29.203Z,58.51
2023-01-21T06:36:56.074Z,57.28
2023-01-21T06:39:22.940Z,53.07
2023-01-21T06:41:49.864Z,48.10
2023-01-21T06:44:16.759Z,44.37
2023-01-21T06:46:52.069Z,44.05
2023-01-21T06:49:26.445Z,44.03
2023-01-21T06:51:53.269Z,45.33
2023-01-21T06:54:22.811Z,46.11
2023-01-21T06:56:49.637Z,48.18
2023-01-21T06:59:16.620Z,50.31
2023-01-21T07:01:43.528Z,52.40
2023-01-21T07:04:10.472Z,54.35
2023-01-21T07:06:38.020Z,53.33
2023-01-21T07:09:06.221Z,55.19
2023-01-21T07:11:33.883Z,53.17
2023-01-21T07:14:00.868Z,49.24
2023-01-21T07:16:27.745Z,48.52
2023-01-21T07:18:54.604Z,47.99
2023-01-21T07:21:21.520Z,49.56
2023-01-21T07:23:48.360Z,50.63
2023-01-21T07:26:15.285Z,49.00
2023-01-21T07:28:42.154Z,47.35
2023-01-21T07:31:09.655Z,42.71
2023-01-21T07:33:36.639Z,42.47
2023-01-21T07:36:03.900Z,39.21
2023-01-21T07:38:30.760Z,37.62
2023-01-21T07:40:57.865Z,41.26
2023-01-21T07:43:24.864Z,44.85
2023-01-21T07:45:52.042Z,46.38
2023-01-21T07:48:18.937Z,42.28
2023-01-21T07:50:45.869Z,43.55
2023-01-21T07:53:12.935Z,45.45
2023-01-21T07:55:40.206Z,49.28
2023-01-21T07:58:07.278Z,48.99
2023-01-21T08:00:34.130Z,48.06
2023-01-21T08:03:01.029Z,45.24
2023-01-21T08:05:28.063Z,43.04
2023-01-21T08:07:58.382Z,42.18
2023-01-21T08:10:25.996Z,47.18
2023-01-21T08:12:52.856Z,50.78
2023-01-21T08:15:19.917Z,52.68
2023-01-21T08:17:47.634Z,51.79
2023-01-21T08:20:15.466Z,44.29
2023-01-21T08:22:42.396Z,45.34
2023-01-21T08:25:09.831Z,45.05
2023-01-21T08:27:36.698Z,46.95
2023-01-21T08:30:03.978Z,49.38
2023-01-21T08:32:31.796Z,51.24
2023-01-21T08:34:58.735Z,47.63
2023-01-21T08:37:25.724Z,51.49
2023-01-21T08:39:52.611Z,49.97
2023-01-21T08:42:19.605Z,49.83
2023-01-21T08:44:46.971Z,49.63
2023-01-21T08:47:13.839Z,53.00
2023-01-21T08:49:40.721Z,55.26
2023-01-21T08:52:07.791Z,60.45
2023-01-21T08:54:34.723Z,57.62
2023-01-21T08:57:01.616Z,59.10
2023-01-21T08:59:30.187Z,58.59
2023-01-21T09:01:57.222Z,59.58
2023-01-21T09:04:24.208Z,59.31
2023-01-21T09:06:51.168Z,56.97
2023-01-21T09:09:18.322Z,58.17
2023-01-21T09:11:45.453Z,61.83
2023-01-21T09:14:12.342Z,62.42
2023-01-21T09:16:39.315Z,58.24
2023-01-21T09:19:06.412Z,57.50
2023-01-21T09:21:37.962Z,57.01
2023-01-21T09:24:05.316Z,52.47
2023-01-21T09:26:32.177Z,52.67
2023-01-21T09:29:01.188Z,55.74
2023-01-21T09:31:30.068Z,59.22
2023-01-21T09:33:59.526Z,63.15
2023-01-21T09:36:30.418Z,62.72
2023-01-21T09:38:58.396Z,64.16
2023-01-21T09:41:31.199Z,65.11
2023-01-21T09:44:16.436Z,66.31
2023-01-21T09:46:56.165Z,70.78
2023-01-21T09:49:30.922Z,70.84
2023-01-21T09:52:30.924Z,75.25
2023-01-21T09:54:58.843Z,77.71
2023-01-21T09:57:34.899Z,75.41
2023-01-21T10:00:19.980Z,69.39
2023-01-21T10:03:08.577Z,65.24
2023-01-21T10:05:44.936Z,67.90
2023-01-21T10:08:30.106Z,71.34
2023-01-21T10:11:22.170Z,75.61
2023-01-21T10:13:54.916Z,74.83
2023-01-21T10:16:54.690Z,71.21
2023-01-21T10:19:33.584Z,70.42
2023-01-21T10:22:06.382Z,65.71
2023-01-21T10:24:42.433Z,61.37
2023-01-21T10:27:19.557Z,59.94
2023-01-21T10:29:54.786Z,58.40
2023-01-21T10:32:25.946Z,62.96
2023-01-21T10:34:55.262Z,59.95
2023-01-21T10:38:00.572Z,57.79
2023-01-21T10:40:43.595Z,59.12
2023-01-21T10:43:28.741Z,58.66
2023-01-21T10:46:18.636Z,60.24
2023-01-21T10:48:54.423Z,61.36
2023-01-21T10:51:32.079Z,57.62
2023-01-21T10:54:37.969Z,62.15
2023-01-21T10:57:20.716Z,63.22
2023-01-21T10:59:48.633Z,63.05
2023-01-21T11:02:30.116Z,65.66
2023-01-21T11:05:02.217Z,66.96
2023-01-21T11:07:35.469Z,71.67
2023-01-21T11:10:05.182Z,73.17
2023-01-21T11:12:32.996Z,79.42
2023-01-21T11:15:07.782Z,77.60
2023-01-21T11:17:39.134Z,74.80
2023-01-21T11:20:33.441Z,77.25
2023-01-21T11:23:04.309Z,76.27
2023-01-21T11:25:41.700Z,78.75
2023-01-21T11:28:26.684Z,76.80
2023-01-21T11:31:15.485Z,75.18
2023-01-21T11:33:43.769Z,73.96
2023-01-21T11:36:14.479Z,70.89
2023-01-21T11:38:42.366Z,72.09
2023-01-21T11:41:12.294Z,72.29
2023-01-21T11:44:08.118Z,72.72
2023-01-21T11:46:38.789Z,73.70
2023-01-21T11:49:08.607Z,72.53
2023-01-21T11:51:37.479Z,71.76
2023-01-21T11:54:24.759Z,69.15
2023-01-21T11:56:56.413Z,69.23
2023-01-21T11:59:30.606Z,70.70
2023-01-21T12:02:10.649Z,72.58
2023-01-21T12:04:42.717Z,72.02
2023-01-21T12:07:19.797Z,70.03
2023-01-21T12:09:56.009Z,69.80
2023-01-21T12:13:00.982Z,70.84
2023-01-21T12:15:46.373Z,74.28
2023-01-21T12:18:51.568Z,73.47
2023-01-21T12:21:52.164Z,72.18
2023-01-21T12:24:18.999Z,71.75
2023-01-21T12:27:00.159Z,69.02
2023-01-21T12:30:00.452Z,68.61
2023-01-21T12:33:03.600Z,68.01
2023-01-21T12:35:39.684Z,67.73
2023-01-21T12:38:10.725Z,68.30
2023-01-21T12:40:41.056Z,68.56
2023-01-21T12:43:30.815Z,67.97
2023-01-21T12:46:23.853Z,67.15
2023-01-21T12:48:53.783Z,67.45
2023-01-21T12:51:28.446Z,67.94
2023-01-21T12:54:22.238Z,68.89
2023-01-21T12:57:19.495Z,68.54
2023-01-21T12:59:56.619Z,70.07
2023-01-21T13:02:39.087Z,70.07
2023-01-21T13:05:23.402Z,67.70
2023-01-21T13:08:16.157Z,68.13
2023-01-21T13:10:50.244Z,69.80
2023-01-21T13:13:22.577Z,70.29
2023-01-21T13:15:56.890Z,70.60
2023-01-21T13:18:32.660Z,71.97
2023-01-21T13:21:12.184Z,75.47
2023-01-21T13:23:54.461Z,75.29
2023-01-21T13:26:39.136Z,76.66
2023-01-21T13:29:19.382Z,75.62
2023-01-21T13:31:55.126Z,75.54
2023-01-21T13:35:06.756Z,74.68
2023-01-21T13:37:37.939Z,73.05
2023-01-21T13:40:32.369Z,73.03
2023-01-21T13:43:32.867Z,71.11
2023-01-21T13:46:07.696Z,71.94
2023-01-21T13:48:51.271Z,71.72
2023-01-21T13:51:36.917Z,73.58
2023-01-21T13:54:24.726Z,74.46
2023-01-21T13:57:19.368Z,71.91
2023-01-21T13:59:53.674Z,73.91
2023-01-21T14:02:48.833Z,78.56
2023-01-21T14:05:24.570Z,77.93
2023-01-21T14:07:59.947Z,77.91
2023-01-21T14:10:48.126Z,78.65
2023-01-21T14:14:01.990Z,79.26
2023-01-21T14:17:09.229Z,77.05
2023-01-21T14:20:13.523Z,76.86
2023-01-21T14:23:20.343Z,76.64
2023-01-21T14:26:28.734Z,75.89
2023-01-21T14:29:13.858Z,75.13
2023-01-21T14:31:44.509Z,75.17
2023-01-21T14:34:24.505Z,76.00
2023-01-21T14:37:15.775Z,76.35
2023-01-21T14:39:54.737Z,76.40
2023-01-21T14:42:41.192Z,76.15
2023-01-21T14:45:08.561Z,74.24
2023-01-21T14:47:35.342Z,73.06
2023-01-21T14:50:02.250Z,74.08
2023-01-21T14:52:36.629Z,74.21
2023-01-21T14:55:24.317Z,75.81
2023-01-21T14:57:52.976Z,76.14
2023-01-21T15:00:29.956Z,76.42
2023-01-21T15:03:15.375Z,77.38
2023-01-21T15:05:48.660Z,75.51
2023-01-21T15:08:32.880Z,73.08
2023-01-21T15:11:04.354Z,73.36
2023-01-21T15:13:38.078Z,73.39
2023-01-21T15:16:23.530Z,75.00
2023-01-21T15:19:08.708Z,74.78
2023-01-21T15:21:42.340Z,80.44
2023-01-21T15:24:21.458Z,81.04
2023-01-21T15:27:14.469Z,80.71
2023-01-21T15:29:44.053Z,83.01
2023-01-21T15:32:30.749Z,83.87
2023-01-21T15:35:29.882Z,84.79
2023-01-21T15:38:04.297Z,85.61
2023-01-21T15:40:41.158Z,84.95
2023-01-21T15:43:20.898Z,85.51
2023-01-21T15:46:16.460Z,86.16
2023-01-21T15:48:57.766Z,86.93
2023-01-21T15:51:39.879Z,87.42
2023-01-21T15:54:28.063Z,87.38
2023-01-21T15:57:25.681Z,88.07
2023-01-21T15:59:55.779Z,87.26
2023-01-21T16:02:31.856Z,88.17
2023-01-21T16:05:04.618Z,89.03
2023-01-21T16:07:54.351Z,88.67
2023-01-21T16:10:31.744Z,89.20
2023-01-21T16:13:17.460Z,89.18
2023-01-21T16:16:02.939Z,89.13
2023-01-21T16:18:44.868Z,88.03
2023-01-21T16:21:12.458Z,88.76
2023-01-21T16:23:43.196Z,88.03
2023-01-21T16:26:10.209Z,89.47
2023-01-21T16:28:46.731Z,89.53
2023-01-21T16:31:13.776Z,89.25
2023-01-21T16:33:42.674Z,89.88
2023-01-21T16:36:14.255Z,89.44
2023-01-21T16:38:43.257Z,90.26
2023-01-21T16:41:13.826Z,90.68
2023-01-21T16:43:45.742Z,89.78
2023-01-21T16:46:15.458Z,89.80
2023-01-21T16:48:42.919Z,90.69
2023-01-21T16:51:23.745Z,88.99
2023-01-21T16:53:54.091Z,87.99
2023-01-21T16:56:30.853Z,88.24
2023-01-21T16:58:57.813Z,89.24
2023-01-21T17:01:31.269Z,86.14
2023-01-21T17:04:01.330Z,88.15
2023-01-21T17:06:31.276Z,89.07
2023-01-21T17:09:02.249Z,88.91
2023-01-21T17:11:31.448Z,88.81
2023-01-21T17:14:01.450Z,88.60
2023-01-21T17:16:37.082Z,89.60
2023-01-21T17:19:23.206Z,91.87
2023-01-21T17:21:55.606Z,90.89
2023-01-21T17:24:34.546Z,87.46
2023-01-21T17:27:09.859Z,85.18
2023-01-21T17:29:36.571Z,89.02
2023-01-21T17:32:25.551Z,89.75
2023-01-21T17:35:14.410Z,90.41
2023-01-21T17:37:45.945Z,90.79
2023-01-21T17:40:25.520Z,89.08
2023-01-21T17:42:53.066Z,89.15
2023-01-21T17:45:28.306Z,90.53
2023-01-21T17:48:12.430Z,90.09
2023-01-21T17:50:46.720Z,91.17
2023-01-21T17:53:25.292Z,90.90
2023-01-21T17:56:04.639Z,91.46
2023-01-21T17:58:31.560Z,90.73
2023-01-21T18:01:01.774Z,91.21
2023-01-21T18:03:28.936Z,91.34
2023-01-21T18:05:56.345Z,94.39
2023-01-21T18:08:23.335Z,96.79
2023-01-21T18:10:50.846Z,97.64
2023-01-21T18:13:19.435Z,97.86
2023-01-21T18:15:49.439Z,97.48
2023-01-21T18:18:19.510Z,97.35
2023-01-21T18:20:47.131Z,95.02
2023-01-21T18:23:15.296Z,95.47
2023-01-21T18:25:43.029Z,92.64
2023-01-21T18:28:18.280Z,94.37
2023-01-21T18:30:45.281Z,92.50
2023-01-21T18:33:13.306Z,92.83
2023-01-21T18:35:44.511Z,93.12
2023-01-21T18:38:13.086Z,91.11
2023-01-21T18:40:40.536Z,90.42
2023-01-21T18:43:07.545Z,90.83
2023-01-21T18:45:34.700Z,91.80
2023-01-21T18:48:01.679Z,92.40
2023-01-21T18:50:30.415Z,87.91
2023-01-21T18:52:57.390Z,86.71
2023-01-21T18:55:28.253Z,86.10
2023-01-21T18:57:56.616Z,85.79
2023-01-21T19:00:29.383Z,87.57
2023-01-21T19:02:58.851Z,86.89
2023-01-21T19:05:34.113Z,88.74
2023-01-21T19:08:01.320Z,86.52
2023-01-21T19:10:28.425Z,90.06
2023-01-21T19:12:55.289Z,85.91
2023-01-21T19:15:25.035Z,85.96
2023-01-21T19:17:52.170Z,84.77
2023-01-21T19:20:20.680Z,83.08
2023-01-21T19:22:49.168Z,84.82
2023-01-21T19:25:18.650Z,85.49
2023-01-21T19:27:50.637Z,85.12
2023-01-21T19:30:29.021Z,84.28
2023-01-21T19:32:57.962Z,84.97
2023-01-21T19:35:38.327Z,82.44
2023-01-21T19:38:11.821Z,83.88
2023-01-21T19:40:39.034Z,86.45
2023-01-21T19:43:05.990Z,85.73
2023-01-21T19:45:33.218Z,84.92
2023-01-21T19:48:00.116Z,84.40
2023-01-21T19:50:28.093Z,84.33
2023-01-21T19:52:55.598Z,87.69
2023-01-21T19:55:25.963Z,87.22
2023-01-21T19:58:00.065Z,85.90
2023-01-21T20:00:34.128Z,82.91
2023-01-21T20:03:01.510Z,82.29
2023-01-21T20:05:33.878Z,83.43
2023-01-21T20:08:01.894Z,87.40
2023-01-21T20:10:31.026Z,87.49
2023-01-21T20:12:58.386Z,87.25
2023-01-21T20:15:31.639Z,87.20
2023-01-21T20:18:01.039Z,86.42
2023-01-21T20:20:30.442Z,85.27
2023-01-21T20:22:57.952Z,84.50
2023-01-21T20:25:36.407Z,83.54
2023-01-21T20:28:14.420Z,82.69
2023-01-21T20:30:41.292Z,83.32
2023-01-21T20:33:13.992Z,86.27
2023-01-21T20:35:41.011Z,86.84
2023-01-21T20:38:13.178Z,89.72
2023-01-21T20:40:40.617Z,88.32
2023-01-21T20:43:07.758Z,89.39
2023-01-21T20:45:41.406Z,88.39
2023-01-21T20:48:18.953Z,87.67
2023-01-21T20:50:46.459Z,86.09
2023-01-21T20:53:13.707Z,84.90
2023-01-21T20:55:41.405Z,84.47
2023-01-21T20:58:12.087Z,82.62
2023-01-21T21:00:39.073Z,84.26
2023-01-21T21:03:06.107Z,86.11
2023-01-21T21:05:33.157Z,83.30
2023-01-21T21:08:00.133Z,82.13
2023-01-21T21:10:29.642Z,79.87
2023-01-21T21:12:58.765Z,80.33
2023-01-21T21:15:30.448Z,81.52
2023-01-21T21:17:58.169Z,79.25
2023-01-21T21:20:27.608Z,76.44
2023-01-21T21:22:54.770Z,76.64
2023-01-21T21:25:28.141Z,77.64
2023-01-21T21:27:55.736Z,76.39
2023-01-21T21:30:28.100Z,74.85
2023-01-21T21:32:59.886Z,74.87
2023-01-21T21:35:31.002Z,76.20
2023-01-21T21:38:06.185Z,77.67
2023-01-21T21:40:34.801Z,76.73
2023-01-21T21:43:20.738Z,78.72
2023-01-21T21:46:06.450Z,76.50
2023-01-21T21:48:39.824Z,79.67
2023-01-21T21:51:15.105Z,79.92
2023-01-21T21:53:41.894Z,79.18
2023-01-21T21:56:13.173Z,79.06
2023-01-21T21:58:40.476Z,79.65
2023-01-21T22:01:13.860Z,79.16
2023-01-21T22:03:41.135Z,78.71
2023-01-21T22:06:08.683Z,80.72
2023-01-21T22:08:37.615Z,78.45
2023-01-21T22:11:07.364Z,79.04
2023-01-21T22:13:37.650Z,81.52
2023-01-21T22:16:05.049Z,82.72
2023-01-21T22:18:32.512Z,81.96
2023-01-21T22:21:04.671Z,79.14
2023-01-21T22:23:33.316Z,79.37
2023-01-21T22:26:07.593Z,78.40
2023-01-21T22:28:35.809Z,74.82
2023-01-21T22:31:12.034Z,75.08
2023-01-21T22:33:39.368Z,75.68
2023-01-21T22:36:09.589Z,76.59
2023-01-21T22:38:39.588Z,75.03
2023-01-21T22:41:08.231Z,75.03
2023-01-21T22:43:35.231Z,75.20
2023-01-21T22:46:02.843Z,74.09
2023-01-21T22:48:31.594Z,72.87
2023-01-21T22:51:00.413Z,72.79
2023-01-21T22:53:28.363Z,73.62
2023-01-21T22:55:59.368Z,72.57
2023-01-21T22:58:27.704Z,73.84
2023-01-21T23:00:55.481Z,74.93
2023-01-21T23:03:23.640Z,73.57
2023-01-21T23:05:50.685Z,71.55
2023-01-21T23:08:18.932Z,72.56
2023-01-21T23:10:46.992Z,72.55
2023-01-21T23:13:15.267Z,75.12
2023-01-21T23:15:44.217Z,76.30
2023-01-21T23:18:11.228Z,75.95
2023-01-21T23:20:38.211Z,76.51
2023-01-21T23:23:05.285Z,75.73
2023-01-21T23:25:32.164Z,76.07
2023-01-21T23:27:59.015Z,76.93
2023-01-21T23:30:25.834Z,76.09
2023-01-21T23:32:52.818Z,78.73
2023-01-21T23:35:19.743Z,80.37
2023-01-21T23:37:46.701Z,79.57
2023-01-21T23:40:13.872Z,82.10
2023-01-21T23:42:41.024Z,81.58
2023-01-21T23:45:08.257Z,82.25
2023-01-21T23:47:35.207Z,83.99
2023-01-21T23:50:02.195Z,83.24
2023-01-21T23:52:29.009Z,83.73
2023-01-21T23:54:55.899Z,85.86
2023-01-21T23:57:22.752Z,85.94
2023-01-21T23:59:49.629Z,84.45
